MSP weather

Minneapolis-St Paul International/Wold-Chamberlain Airport
Minneapolis, Minnesota, United States

Public forecast

Using degrees Fahrenheit for public forecast. Weather courtesy of forecast.io.

Current aviation weather report (METAR) for Minneapolis-St Paul International/Wold-Chamberlain Airport

Retrieved 2019/10/23 00:53 UTC (9 minutes ago):

KMSP 230053Z 29017G29KT 10SM FEW035 OVC060 07/01 A2966 RMK AO2 PK WND 32034/0011 SLP047 T00720006

Aviation forecast (TAF) for Minneapolis-St Paul International/Wold-Chamberlain Airport

Retrieved 2019-10-23 00:28 UTC (34 minutes ago):

TAF KMSP 222326Z 2300/2406 28018G29KT P6SM OVC035 FM230500 27011KT P6SM BKN035 FM230900 26007KT P6SM SCT250 FM231500 31006KT P6SM OVC100 FM232000 31009KT P6SM SCT025 OVC035